sensor_id;sensor_type;location;lat;lon;timestamp;P1;durP1;ratioP1;P2;durP2;ratioP2
51724;SDS011;37801;53.224;6.552;2023-04-01T00:00:32;15.32;;;10.20;;
51724;SDS011;37801;53.224;6.552;2023-04-01T00:02:58;13.38;;;10.30;;
51724;SDS011;37801;53.224;6.552;2023-04-01T00:05:25;14.10;;;10.40;;
51724;SDS011;37801;53.224;6.552;2023-04-01T00:07:52;12.07;;;9.43;;
51724;SDS011;37801;53.224;6.552;2023-04-01T00:10:18;13.65;;;10.63;;
51724;SDS011;37801;53.224;6.552;2023-04-01T00:12:44;12.35;;;10.48;;
51724;SDS011;37801;53.224;6.552;2023-04-01T00:15:11;12.48;;;10.43;;
51724;SDS011;37801;53.224;6.552;2023-04-01T00:17:37;13.27;;;10.05;;
51724;SDS011;37801;53.224;6.552;2023-04-01T00:20:04;11.27;;;10.07;;
51724;SDS011;37801;53.224;6.552;2023-04-01T00:22:30;14.23;;;10.60;;
51724;SDS011;37801;53.224;6.552;2023-04-01T00:24:56;11.30;;;9.85;;
51724;SDS011;37801;53.224;6.552;2023-04-01T00:27:22;11.80;;;9.90;;
51724;SDS011;37801;53.224;6.552;2023-04-01T00:29:48;10.93;;;9.20;;
51724;SDS011;37801;53.224;6.552;2023-04-01T00:32:15;12.48;;;9.10;;
51724;SDS011;37801;53.224;6.552;2023-04-01T00:34:41;9.60;;;8.43;;
51724;SDS011;37801;53.224;6.552;2023-04-01T00:37:09;11.50;;;9.45;;
51724;SDS011;37801;53.224;6.552;2023-04-01T00:39:36;11.35;;;8.98;;
51724;SDS011;37801;53.224;6.552;2023-04-01T00:42:03;10.85;;;8.68;;
51724;SDS011;37801;53.224;6.552;2023-04-01T00:44:31;10.82;;;9.13;;
51724;SDS011;37801;53.224;6.552;2023-04-01T00:46:57;12.18;;;9.80;;
51724;SDS011;37801;53.224;6.552;2023-04-01T00:49:29;14.63;;;10.13;;
51724;SDS011;37801;53.224;6.552;2023-04-01T00:51:57;12.85;;;10.27;;
51724;SDS011;37801;53.224;6.552;2023-04-01T00:54:25;12.07;;;9.73;;
51724;SDS011;37801;53.224;6.552;2023-04-01T00:59:22;12.27;;;9.15;;
51724;SDS011;37801;53.224;6.552;2023-04-01T01:01:52;11.65;;;9.68;;
51724;SDS011;37801;53.224;6.552;2023-04-01T01:04:31;11.88;;;9.38;;
51724;SDS011;37801;53.224;6.552;2023-04-01T01:09:33;11.85;;;10.10;;
51724;SDS011;37801;53.224;6.552;2023-04-01T01:14:36;14.43;;;10.60;;
51724;SDS011;37801;53.224;6.552;2023-04-01T01:17:09;13.10;;;10.35;;
51724;SDS011;37801;53.224;6.552;2023-04-01T01:27:41;13.57;;;10.60;;
51724;SDS011;37801;53.224;6.552;2023-04-01T01:33:03;14.60;;;10.63;;
51724;SDS011;37801;53.224;6.552;2023-04-01T01:35:33;13.13;;;10.70;;
51724;SDS011;37801;53.224;6.552;2023-04-01T01:38:02;14.70;;;11.23;;
51724;SDS011;37801;53.224;6.552;2023-04-01T01:40:29;13.45;;;10.25;;
51724;SDS011;37801;53.224;6.552;2023-04-01T01:42:59;13.27;;;11.10;;
51724;SDS011;37801;53.224;6.552;2023-04-01T01:45:26;15.23;;;10.80;;
51724;SDS011;37801;53.224;6.552;2023-04-01T01:47:53;11.85;;;10.48;;
51724;SDS011;37801;53.224;6.552;2023-04-01T01:50:20;12.25;;;10.35;;
51724;SDS011;37801;53.224;6.552;2023-04-01T01:52:47;12.00;;;10.13;;
51724;SDS011;37801;53.224;6.552;2023-04-01T01:55:24;12.63;;;10.70;;
51724;SDS011;37801;53.224;6.552;2023-04-01T01:57:51;12.40;;;10.52;;
51724;SDS011;37801;53.224;6.552;2023-04-01T02:00:17;12.38;;;10.77;;
51724;SDS011;37801;53.224;6.552;2023-04-01T02:02:46;14.30;;;11.68;;
51724;SDS011;37801;53.224;6.552;2023-04-01T02:05:21;13.52;;;10.70;;
51724;SDS011;37801;53.224;6.552;2023-04-01T02:07:49;14.40;;;11.05;;
51724;SDS011;37801;53.224;6.552;2023-04-01T02:10:18;13.88;;;11.15;;
51724;SDS011;37801;53.224;6.552;2023-04-01T02:12:47;15.63;;;10.82;;
51724;SDS011;37801;53.224;6.552;2023-04-01T02:15:13;14.38;;;11.38;;
51724;SDS011;37801;53.224;6.552;2023-04-01T02:17:42;14.73;;;11.10;;
51724;SDS011;37801;53.224;6.552;2023-04-01T02:20:14;12.90;;;11.07;;
51724;SDS011;37801;53.224;6.552;2023-04-01T02:22:43;15.75;;;11.48;;
51724;SDS011;37801;53.224;6.552;2023-04-01T02:25:11;13.35;;;10.88;;
51724;SDS011;37801;53.224;6.552;2023-04-01T02:27:38;13.85;;;11.07;;
51724;SDS011;37801;53.224;6.552;2023-04-01T02:30:05;13.13;;;10.40;;
51724;SDS011;37801;53.224;6.552;2023-04-01T02:32:32;13.40;;;10.85;;
51724;SDS011;37801;53.224;6.552;2023-04-01T02:34:59;13.35;;;11.02;;
51724;SDS011;37801;53.224;6.552;2023-04-01T02:37:28;13.38;;;11.20;;
51724;SDS011;37801;53.224;6.552;2023-04-01T02:39:54;13.10;;;10.40;;
51724;SDS011;37801;53.224;6.552;2023-04-01T02:42:24;13.15;;;11.02;;
51724;SDS011;37801;53.224;6.552;2023-04-01T02:44:52;11.85;;;10.38;;
51724;SDS011;37801;53.224;6.552;2023-04-01T02:47:18;13.68;;;10.65;;
51724;SDS011;37801;53.224;6.552;2023-04-01T02:49:44;12.40;;;10.02;;
51724;SDS011;37801;53.224;6.552;2023-04-01T02:52:10;12.82;;;10.60;;
51724;SDS011;37801;53.224;6.552;2023-04-01T02:54:36;12.48;;;10.88;;
51724;SDS011;37801;53.224;6.552;2023-04-01T02:57:03;13.63;;;11.18;;
51724;SDS011;37801;53.224;6.552;2023-04-01T02:59:29;13.52;;;11.05;;
51724;SDS011;37801;53.224;6.552;2023-04-01T03:01:55;15.70;;;11.23;;
51724;SDS011;37801;53.224;6.552;2023-04-01T03:04:21;15.00;;;11.02;;
51724;SDS011;37801;53.224;6.552;2023-04-01T03:06:47;15.43;;;12.52;;
51724;SDS011;37801;53.224;6.552;2023-04-01T03:09:13;16.05;;;12.18;;
51724;SDS011;37801;53.224;6.552;2023-04-01T03:11:40;22.70;;;14.05;;
51724;SDS011;37801;53.224;6.552;2023-04-01T03:14:06;17.67;;;14.20;;
51724;SDS011;37801;53.224;6.552;2023-04-01T03:16:32;18.58;;;14.80;;
51724;SDS011;37801;53.224;6.552;2023-04-01T03:18:58;18.23;;;14.00;;
51724;SDS011;37801;53.224;6.552;2023-04-01T03:21:26;17.10;;;13.55;;
51724;SDS011;37801;53.224;6.552;2023-04-01T03:23:53;18.00;;;13.73;;
51724;SDS011;37801;53.224;6.552;2023-04-01T03:26:19;19.63;;;14.68;;
51724;SDS011;37801;53.224;6.552;2023-04-01T03:28:46;17.95;;;14.27;;
51724;SDS011;37801;53.224;6.552;2023-04-01T03:31:13;19.15;;;14.35;;
51724;SDS011;37801;53.224;6.552;2023-04-01T03:33:41;20.58;;;16.02;;
51724;SDS011;37801;53.224;6.552;2023-04-01T03:36:07;18.38;;;15.00;;
51724;SDS011;37801;53.224;6.552;2023-04-01T03:38:34;21.52;;;15.63;;
51724;SDS011;37801;53.224;6.552;2023-04-01T03:41:01;20.20;;;15.88;;
51724;SDS011;37801;53.224;6.552;2023-04-01T03:43:27;20.85;;;15.80;;
51724;SDS011;37801;53.224;6.552;2023-04-01T03:45:53;21.17;;;16.02;;
51724;SDS011;37801;53.224;6.552;2023-04-01T03:48:20;21.33;;;16.35;;
51724;SDS011;37801;53.224;6.552;2023-04-01T03:50:46;24.13;;;17.50;;
51724;SDS011;37801;53.224;6.552;2023-04-01T03:53:12;21.05;;;16.58;;
51724;SDS011;37801;53.224;6.552;2023-04-01T03:55:39;22.98;;;16.45;;
51724;SDS011;37801;53.224;6.552;2023-04-01T03:58:05;21.45;;;17.23;;
51724;SDS011;37801;53.224;6.552;2023-04-01T04:00:32;22.63;;;16.60;;
51724;SDS011;37801;53.224;6.552;2023-04-01T04:02:59;22.38;;;16.75;;
51724;SDS011;37801;53.224;6.552;2023-04-01T04:05:25;23.75;;;17.33;;
51724;SDS011;37801;53.224;6.552;2023-04-01T04:07:52;21.48;;;16.30;;
51724;SDS011;37801;53.224;6.552;2023-04-01T04:10:19;22.27;;;17.02;;
51724;SDS011;37801;53.224;6.552;2023-04-01T04:12:45;23.65;;;17.58;;
51724;SDS011;37801;53.224;6.552;2023-04-01T04:15:11;22.42;;;16.75;;
51724;SDS011;37801;53.224;6.552;2023-04-01T04:17:37;22.70;;;16.48;;
51724;SDS011;37801;53.224;6.552;2023-04-01T04:20:04;23.92;;;17.17;;
51724;SDS011;37801;53.224;6.552;2023-04-01T04:22:30;21.80;;;16.13;;
51724;SDS011;37801;53.224;6.552;2023-04-01T04:24:56;22.90;;;16.55;;
51724;SDS011;37801;53.224;6.552;2023-04-01T04:27:22;21.15;;;17.10;;
51724;SDS011;37801;53.224;6.552;2023-04-01T04:29:48;22.42;;;17.67;;
51724;SDS011;37801;53.224;6.552;2023-04-01T04:32:15;23.40;;;17.38;;
51724;SDS011;37801;53.224;6.552;2023-04-01T04:34:41;23.30;;;17.88;;
51724;SDS011;37801;53.224;6.552;2023-04-01T04:37:07;23.88;;;17.55;;
51724;SDS011;37801;53.224;6.552;2023-04-01T04:39:33;24.95;;;18.05;;
51724;SDS011;37801;53.224;6.552;2023-04-01T04:41:59;22.13;;;16.90;;
51724;SDS011;37801;53.224;6.552;2023-04-01T04:44:25;23.90;;;17.65;;
51724;SDS011;37801;53.224;6.552;2023-04-01T04:46:52;23.45;;;17.60;;
51724;SDS011;37801;53.224;6.552;2023-04-01T04:49:18;23.27;;;18.25;;
51724;SDS011;37801;53.224;6.552;2023-04-01T04:51:44;23.92;;;18.38;;
51724;SDS011;37801;53.224;6.552;2023-04-01T04:54:10;22.73;;;17.83;;
51724;SDS011;37801;53.224;6.552;2023-04-01T04:56:36;24.67;;;18.58;;
51724;SDS011;37801;53.224;6.552;2023-04-01T04:59:03;22.73;;;17.80;;
51724;SDS011;37801;53.224;6.552;2023-04-01T05:01:29;24.08;;;18.50;;
51724;SDS011;37801;53.224;6.552;2023-04-01T05:03:55;21.63;;;17.70;;
51724;SDS011;37801;53.224;6.552;2023-04-01T05:06:21;23.00;;;17.55;;
51724;SDS011;37801;53.224;6.552;2023-04-01T05:08:47;24.33;;;18.17;;
51724;SDS011;37801;53.224;6.552;2023-04-01T05:11:15;26.42;;;18.17;;
51724;SDS011;37801;53.224;6.552;2023-04-01T05:13:41;22.88;;;18.38;;
51724;SDS011;37801;53.224;6.552;2023-04-01T05:16:11;21.63;;;17.95;;
51724;SDS011;37801;53.224;6.552;2023-04-01T05:18:38;25.00;;;18.15;;
51724;SDS011;37801;53.224;6.552;2023-04-01T05:21:04;27.48;;;19.17;;
51724;SDS011;37801;53.224;6.552;2023-04-01T05:23:32;24.50;;;18.48;;
51724;SDS011;37801;53.224;6.552;2023-04-01T05:26:02;26.33;;;19.70;;
51724;SDS011;37801;53.224;6.552;2023-04-01T05:28:28;25.70;;;17.88;;
51724;SDS011;37801;53.224;6.552;2023-04-01T05:30:54;24.00;;;18.45;;
51724;SDS011;37801;53.224;6.552;2023-04-01T05:33:20;27.27;;;20.30;;
51724;SDS011;37801;53.224;6.552;2023-04-01T05:35:47;28.23;;;19.88;;
51724;SDS011;37801;53.224;6.552;2023-04-01T05:38:13;26.30;;;19.77;;
51724;SDS011;37801;53.224;6.552;2023-04-01T05:40:39;24.27;;;19.13;;
51724;SDS011;37801;53.224;6.552;2023-04-01T05:43:05;29.00;;;20.30;;
51724;SDS011;37801;53.224;6.552;2023-04-01T05:45:31;25.08;;;18.33;;
51724;SDS011;37801;53.224;6.552;2023-04-01T05:47:59;22.27;;;17.40;;
51724;SDS011;37801;53.224;6.552;2023-04-01T05:50:25;24.60;;;19.42;;
51724;SDS011;37801;53.224;6.552;2023-04-01T05:52:52;24.88;;;18.05;;
51724;SDS011;37801;53.224;6.552;2023-04-01T05:55:18;22.40;;;16.83;;
51724;SDS011;37801;53.224;6.552;2023-04-01T05:57:45;20.35;;;16.30;;
51724;SDS011;37801;53.224;6.552;2023-04-01T06:00:13;21.48;;;16.23;;
51724;SDS011;37801;53.224;6.552;2023-04-01T06:02:40;22.70;;;16.67;;
51724;SDS011;37801;53.224;6.552;2023-04-01T06:05:18;20.20;;;15.57;;
51724;SDS011;37801;53.224;6.552;2023-04-01T06:07:44;20.92;;;16.00;;
51724;SDS011;37801;53.224;6.552;2023-04-01T06:10:12;21.02;;;15.93;;
51724;SDS011;37801;53.224;6.552;2023-04-01T06:23:05;25.40;;;18.75;;
51724;SDS011;37801;53.224;6.552;2023-04-01T06:25:46;27.88;;;19.02;;
51724;SDS011;37801;53.224;6.552;2023-04-01T06:30:45;26.02;;;19.17;;
51724;SDS011;37801;53.224;6.552;2023-04-01T06:38:26;25.25;;;19.40;;
51724;SDS011;37801;53.224;6.552;2023-04-01T06:54:36;32.72;;;23.13;;
51724;SDS011;37801;53.224;6.552;2023-04-01T06:57:47;33.40;;;23.60;;
51724;SDS011;37801;53.224;6.552;2023-04-01T06:59:54;32.83;;;23.02;;
51724;SDS011;37801;53.224;6.552;2023-04-01T07:02:24;33.63;;;23.83;;
51724;SDS011;37801;53.224;6.552;2023-04-01T07:04:52;36.25;;;25.67;;
51724;SDS011;37801;53.224;6.552;2023-04-01T07:09:50;35.45;;;24.98;;
51724;SDS011;37801;53.224;6.552;2023-04-01T07:12:38;36.85;;;25.45;;
51724;SDS011;37801;53.224;6.552;2023-04-01T07:15:49;33.85;;;24.10;;
51724;SDS011;37801;53.224;6.552;2023-04-01T07:17:57;36.28;;;24.45;;
51724;SDS011;37801;53.224;6.552;2023-04-01T07:20:29;35.47;;;25.23;;
51724;SDS011;37801;53.224;6.552;2023-04-01T07:23:00;34.22;;;23.70;;
51724;SDS011;37801;53.224;6.552;2023-04-01T07:25:38;33.78;;;24.80;;
51724;SDS011;37801;53.224;6.552;2023-04-01T07:28:06;36.47;;;25.08;;
51724;SDS011;37801;53.224;6.552;2023-04-01T07:30:48;36.42;;;26.15;;
51724;SDS011;37801;53.224;6.552;2023-04-01T07:33:33;34.03;;;25.20;;
51724;SDS011;37801;53.224;6.552;2023-04-01T07:39:06;36.20;;;24.90;;
51724;SDS011;37801;53.224;6.552;2023-04-01T07:41:50;33.22;;;23.75;;
51724;SDS011;37801;53.224;6.552;2023-04-01T07:49:48;34.55;;;23.88;;
51724;SDS011;37801;53.224;6.552;2023-04-01T07:52:32;33.05;;;22.73;;
51724;SDS011;37801;53.224;6.552;2023-04-01T07:57:34;32.92;;;24.08;;
51724;SDS011;37801;53.224;6.552;2023-04-01T08:05:19;37.65;;;24.20;;
51724;SDS011;37801;53.224;6.552;2023-04-01T08:07:55;33.95;;;22.67;;
51724;SDS011;37801;53.224;6.552;2023-04-01T08:15:49;32.45;;;22.45;;
51724;SDS011;37801;53.224;6.552;2023-04-01T08:20:56;33.38;;;20.42;;
51724;SDS011;37801;53.224;6.552;2023-04-01T08:23:33;30.23;;;19.80;;
51724;SDS011;37801;53.224;6.552;2023-04-01T08:26:26;28.55;;;18.98;;
51724;SDS011;37801;53.224;6.552;2023-04-01T08:33:57;29.27;;;19.17;;
51724;SDS011;37801;53.224;6.552;2023-04-01T08:36:24;26.95;;;18.83;;
51724;SDS011;37801;53.224;6.552;2023-04-01T08:39:04;33.53;;;21.75;;
51724;SDS011;37801;53.224;6.552;2023-04-01T08:57:03;16.17;;;11.48;;
51724;SDS011;37801;53.224;6.552;2023-04-01T09:04:53;13.18;;;9.23;;
51724;SDS011;37801;53.224;6.552;2023-04-01T09:15:34;11.15;;;8.57;;
51724;SDS011;37801;53.224;6.552;2023-04-01T09:38:36;6.13;;;4.50;;
51724;SDS011;37801;53.224;6.552;2023-04-01T09:46:14;6.63;;;4.50;;
51724;SDS011;37801;53.224;6.552;2023-04-01T09:49:20;6.05;;;4.78;;
51724;SDS011;37801;53.224;6.552;2023-04-01T09:56:52;6.65;;;4.93;;
51724;SDS011;37801;53.224;6.552;2023-04-01T10:02:13;6.72;;;4.88;;
51724;SDS011;37801;53.224;6.552;2023-04-01T10:27:59;5.97;;;4.07;;
51724;SDS011;37801;53.224;6.552;2023-04-01T11:17:41;9.88;;;4.88;;
51724;SDS011;37801;53.224;6.552;2023-04-01T11:23:25;8.80;;;4.70;;
51724;SDS011;37801;53.224;6.552;2023-04-01T11:29:03;4.78;;;3.60;;
51724;SDS011;37801;53.224;6.552;2023-04-01T11:31:35;5.72;;;4.00;;
51724;SDS011;37801;53.224;6.552;2023-04-01T11:34:07;5.70;;;4.10;;
51724;SDS011;37801;53.224;6.552;2023-04-01T11:36:55;6.35;;;3.50;;
51724;SDS011;37801;53.224;6.552;2023-04-01T11:39:37;4.22;;;3.45;;
51724;SDS011;37801;53.224;6.552;2023-04-01T11:44:36;5.03;;;3.53;;
51724;SDS011;37801;53.224;6.552;2023-04-01T11:52:34;4.35;;;2.97;;
51724;SDS011;37801;53.224;6.552;2023-04-01T12:08:25;4.32;;;2.95;;
51724;SDS011;37801;53.224;6.552;2023-04-01T12:19:04;5.35;;;3.47;;
51724;SDS011;37801;53.224;6.552;2023-04-01T12:21:45;4.78;;;2.88;;
51724;SDS011;37801;53.224;6.552;2023-04-01T12:27:20;3.92;;;2.78;;
51724;SDS011;37801;53.224;6.552;2023-04-01T12:32:17;4.90;;;3.10;;
51724;SDS011;37801;53.224;6.552;2023-04-01T12:35:20;4.38;;;3.00;;
51724;SDS011;37801;53.224;6.552;2023-04-01T12:40:17;3.58;;;2.63;;
51724;SDS011;37801;53.224;6.552;2023-04-01T12:43:05;5.03;;;3.00;;
51724;SDS011;37801;53.224;6.552;2023-04-01T12:45:35;3.60;;;2.85;;
51724;SDS011;37801;53.224;6.552;2023-04-01T12:48:15;4.43;;;2.50;;
51724;SDS011;37801;53.224;6.552;2023-04-01T12:55:45;3.38;;;2.53;;
51724;SDS011;37801;53.224;6.552;2023-04-01T13:00:58;4.18;;;2.92;;
51724;SDS011;37801;53.224;6.552;2023-04-01T13:09:15;4.15;;;2.53;;
51724;SDS011;37801;53.224;6.552;2023-04-01T13:16:57;4.63;;;3.22;;
51724;SDS011;37801;53.224;6.552;2023-04-01T13:19:41;4.28;;;2.80;;
51724;SDS011;37801;53.224;6.552;2023-04-01T13:25:04;4.25;;;2.70;;
51724;SDS011;37801;53.224;6.552;2023-04-01T13:28:09;3.92;;;2.83;;
51724;SDS011;37801;53.224;6.552;2023-04-01T13:35:26;8.43;;;2.33;;
51724;SDS011;37801;53.224;6.552;2023-04-01T13:43:02;6.05;;;2.53;;
51724;SDS011;37801;53.224;6.552;2023-04-01T13:45:35;3.45;;;2.20;;
51724;SDS011;37801;53.224;6.552;2023-04-01T14:11:48;3.45;;;2.00;;
51724;SDS011;37801;53.224;6.552;2023-04-01T14:17:06;2.90;;;1.90;;
51724;SDS011;37801;53.224;6.552;2023-04-01T14:22:32;2.97;;;2.00;;
51724;SDS011;37801;53.224;6.552;2023-04-01T14:28:09;2.45;;;1.67;;
51724;SDS011;37801;53.224;6.552;2023-04-01T14:30:35;2.58;;;1.50;;
51724;SDS011;37801;53.224;6.552;2023-04-01T14:35:35;2.40;;;1.70;;
51724;SDS011;37801;53.224;6.552;2023-04-01T14:48:49;3.42;;;1.80;;
51724;SDS011;37801;53.224;6.552;2023-04-01T14:51:36;5.40;;;2.38;;
51724;SDS011;37801;53.224;6.552;2023-04-01T14:56:50;4.10;;;2.58;;
51724;SDS011;37801;53.224;6.552;2023-04-01T15:01:52;5.05;;;2.50;;
51724;SDS011;37801;53.224;6.552;2023-04-01T15:04:32;3.63;;;2.47;;
51724;SDS011;37801;53.224;6.552;2023-04-01T15:12:08;7.10;;;2.75;;
51724;SDS011;37801;53.224;6.552;2023-04-01T15:22:29;5.03;;;2.90;;
51724;SDS011;37801;53.224;6.552;2023-04-01T15:25:17;4.88;;;3.00;;
51724;SDS011;37801;53.224;6.552;2023-04-01T15:27:53;6.93;;;3.72;;
51724;SDS011;37801;53.224;6.552;2023-04-01T15:30:27;5.15;;;3.30;;
51724;SDS011;37801;53.224;6.552;2023-04-01T15:35:52;7.18;;;4.18;;
51724;SDS011;37801;53.224;6.552;2023-04-01T15:41:03;6.68;;;4.00;;
51724;SDS011;37801;53.224;6.552;2023-04-01T15:46:09;8.52;;;4.78;;
51724;SDS011;37801;53.224;6.552;2023-04-01T15:54:27;8.35;;;4.38;;
51724;SDS011;37801;53.224;6.552;2023-04-01T16:04:49;10.20;;;5.40;;
51724;SDS011;37801;53.224;6.552;2023-04-01T16:12:35;9.82;;;5.50;;
51724;SDS011;37801;53.224;6.552;2023-04-01T16:20:55;13.20;;;6.28;;
51724;SDS011;37801;53.224;6.552;2023-04-01T16:25:49;16.38;;;7.75;;
51724;SDS011;37801;53.224;6.552;2023-04-01T16:28:23;12.07;;;6.32;;
51724;SDS011;37801;53.224;6.552;2023-04-01T16:31:08;11.68;;;6.07;;
51724;SDS011;37801;53.224;6.552;2023-04-01T16:44:26;8.27;;;4.78;;
51724;SDS011;37801;53.224;6.552;2023-04-01T16:46:53;9.52;;;5.90;;
51724;SDS011;37801;53.224;6.552;2023-04-01T16:59:38;8.60;;;5.40;;
51724;SDS011;37801;53.224;6.552;2023-04-01T17:09:56;7.03;;;4.57;;
51724;SDS011;37801;53.224;6.552;2023-04-01T17:12:28;10.68;;;5.00;;
51724;SDS011;37801;53.224;6.552;2023-04-01T17:28:17;13.98;;;5.95;;
51724;SDS011;37801;53.224;6.552;2023-04-01T17:33:41;12.90;;;5.90;;
51724;SDS011;37801;53.224;6.552;2023-04-01T17:36:12;9.52;;;5.13;;
51724;SDS011;37801;53.224;6.552;2023-04-01T17:39:02;12.10;;;5.70;;
51724;SDS011;37801;53.224;6.552;2023-04-01T17:41:48;9.15;;;4.60;;
51724;SDS011;37801;53.224;6.552;2023-04-01T17:47:23;9.65;;;5.88;;
51724;SDS011;37801;53.224;6.552;2023-04-01T17:54:52;10.88;;;5.85;;
51724;SDS011;37801;53.224;6.552;2023-04-01T17:57:26;10.93;;;5.23;;
51724;SDS011;37801;53.224;6.552;2023-04-01T18:00:06;11.30;;;5.88;;
51724;SDS011;37801;53.224;6.552;2023-04-01T18:05:34;13.23;;;5.85;;
51724;SDS011;37801;53.224;6.552;2023-04-01T18:08:06;10.23;;;6.00;;
51724;SDS011;37801;53.224;6.552;2023-04-01T18:10:57;11.48;;;6.15;;
51724;SDS011;37801;53.224;6.552;2023-04-01T18:18:42;8.20;;;5.32;;
51724;SDS011;37801;53.224;6.552;2023-04-01T18:21:19;14.43;;;5.68;;
51724;SDS011;37801;53.224;6.552;2023-04-01T18:23:59;9.52;;;5.10;;
51724;SDS011;37801;53.224;6.552;2023-04-01T18:28:56;8.95;;;4.75;;
51724;SDS011;37801;53.224;6.552;2023-04-01T18:31:32;10.55;;;5.50;;
51724;SDS011;37801;53.224;6.552;2023-04-01T18:34:06;10.05;;;4.70;;
51724;SDS011;37801;53.224;6.552;2023-04-01T18:47:08;12.68;;;5.45;;
51724;SDS011;37801;53.224;6.552;2023-04-01T18:54:49;11.13;;;5.38;;
51724;SDS011;37801;53.224;6.552;2023-04-01T18:57:18;10.75;;;6.35;;
51724;SDS011;37801;53.224;6.552;2023-04-01T19:02:43;12.85;;;6.03;;
51724;SDS011;37801;53.224;6.552;2023-04-01T19:05:12;10.40;;;5.75;;
51724;SDS011;37801;53.224;6.552;2023-04-01T19:07:42;12.93;;;5.32;;
51724;SDS011;37801;53.224;6.552;2023-04-01T19:17:54;10.73;;;5.63;;
51724;SDS011;37801;53.224;6.552;2023-04-01T19:20:37;13.02;;;5.80;;
51724;SDS011;37801;53.224;6.552;2023-04-01T19:30:51;11.82;;;5.55;;
51724;SDS011;37801;53.224;6.552;2023-04-01T19:33:26;9.27;;;5.82;;
51724;SDS011;37801;53.224;6.552;2023-04-01T20:01:28;13.43;;;5.47;;
51724;SDS011;37801;53.224;6.552;2023-04-01T20:04:03;9.48;;;4.85;;
51724;SDS011;37801;53.224;6.552;2023-04-01T20:17:07;8.55;;;4.65;;
51724;SDS011;37801;53.224;6.552;2023-04-01T20:24:51;16.50;;;7.30;;
51724;SDS011;37801;53.224;6.552;2023-04-01T20:27:21;10.07;;;5.30;;
51724;SDS011;37801;53.224;6.552;2023-04-01T20:45:31;8.27;;;3.88;;
51724;SDS011;37801;53.224;6.552;2023-04-01T20:48:15;8.52;;;4.28;;
51724;SDS011;37801;53.224;6.552;2023-04-01T21:08:43;6.75;;;3.30;;
51724;SDS011;37801;53.224;6.552;2023-04-01T21:34:42;9.00;;;3.28;;
51724;SDS011;37801;53.224;6.552;2023-04-01T21:42:40;5.90;;;3.22;;
51724;SDS011;37801;53.224;6.552;2023-04-01T21:45:21;7.40;;;3.70;;
51724;SDS011;37801;53.224;6.552;2023-04-01T21:55:59;10.10;;;3.67;;
51724;SDS011;37801;53.224;6.552;2023-04-01T22:06:46;8.65;;;4.18;;
51724;SDS011;37801;53.224;6.552;2023-04-01T22:12:04;7.20;;;3.60;;
51724;SDS011;37801;53.224;6.552;2023-04-01T22:14:37;7.30;;;3.28;;
51724;SDS011;37801;53.224;6.552;2023-04-01T22:20:19;11.70;;;4.18;;
51724;SDS011;37801;53.224;6.552;2023-04-01T22:40:51;9.02;;;3.15;;
51724;SDS011;37801;53.224;6.552;2023-04-01T22:43:29;8.07;;;2.85;;
51724;SDS011;37801;53.224;6.552;2023-04-01T22:53:59;7.45;;;2.78;;
51724;SDS011;37801;53.224;6.552;2023-04-01T22:56:33;9.23;;;2.80;;
51724;SDS011;37801;53.224;6.552;2023-04-01T22:59:24;7.95;;;2.85;;
51724;SDS011;37801;53.224;6.552;2023-04-01T23:01:59;8.02;;;2.35;;
51724;SDS011;37801;53.224;6.552;2023-04-01T23:04:29;5.07;;;2.42;;
51724;SDS011;37801;53.224;6.552;2023-04-01T23:07:01;8.50;;;2.95;;
51724;SDS011;37801;53.224;6.552;2023-04-01T23:09:33;8.15;;;2.70;;
51724;SDS011;37801;53.224;6.552;2023-04-01T23:12:05;6.47;;;2.63;;
51724;SDS011;37801;53.224;6.552;2023-04-01T23:25:12;6.35;;;2.50;;
51724;SDS011;37801;53.224;6.552;2023-04-01T23:32:57;9.35;;;2.72;;
51724;SDS011;37801;53.224;6.552;2023-04-01T23:35:39;5.88;;;2.58;;
51724;SDS011;37801;53.224;6.552;2023-04-01T23:38:11;6.25;;;2.40;;
51724;SDS011;37801;53.224;6.552;2023-04-01T23:40:38;9.05;;;2.60;;
51724;SDS011;37801;53.224;6.552;2023-04-01T23:43:12;10.73;;;2.38;;
51724;SDS011;37801;53.224;6.552;2023-04-01T23:48:04;5.32;;;2.45;;
51724;SDS011;37801;53.224;6.552;2023-04-01T23:50:31;7.68;;;3.00;;
51724;SDS011;37801;53.224;6.552;2023-04-01T23:53:08;5.65;;;2.30;;
51724;SDS011;37801;53.224;6.552;2023-04-01T23:55:38;6.85;;;2.45;;
